Time;durP1;ratioP1;P1;durP2;ratioP2;P2;SDS_P1;SDS_P2;PMS_P1;PMS_P2;Temp;Humidity;BMP_temperature;BMP_pressure;BME280_temperature;BME280_humidity;BME280_pressure;Samples;Min_cycle;Max_cycle;Signal;HPM_P1;HPM_P2
2023/04/04 00:00:35;;;;;;;15.90;7.85;;;5.00;99.90;;;;;;4954778;28;20049;-90
2023/04/04 00:03:01;;;;;;;12.23;8.23;;;5.30;99.90;;;;;;4954827;28;20023;-90
2023/04/04 00:05:27;;;;;;;7.90;6.13;;;4.90;99.90;;;;;;4954346;28;20034;-90
2023/04/04 00:07:52;;;;;;;8.80;6.97;;;4.70;99.90;;;;;;4954668;28;20024;-90
2023/04/04 00:10:18;;;;;;;9.50;7.32;;;4.70;99.90;;;;;;4954778;28;20382;-89
2023/04/04 00:12:44;;;;;;;13.73;8.02;;;4.60;99.90;;;;;;4955110;28;20363;-89
2023/04/04 00:15:10;;;;;;;15.77;9.77;;;4.70;99.90;;;;;;4946590;28;20051;-90
2023/04/04 00:17:36;;;;;;;14.38;8.85;;;4.80;99.90;;;;;;4935110;29;20035;-90
2023/04/04 00:20:03;;;;;;;15.55;9.38;;;4.80;99.90;;;;;;4934774;29;20036;-89
2023/04/04 00:22:28;;;;;;;13.65;8.02;;;4.80;99.90;;;;;;4935766;29;20043;-90
2023/04/04 00:24:54;;;;;;;15.02;7.97;;;4.80;99.90;;;;;;4935463;29;20028;-90
2023/04/04 00:27:20;;;;;;;11.05;7.55;;;4.80;99.90;;;;;;4935390;29;20038;-90
2023/04/04 00:29:45;;;;;;;8.65;6.10;;;4.90;99.90;;;;;;4935229;29;20097;-89
2023/04/04 00:32:11;;;;;;;12.95;8.23;;;4.80;99.90;;;;;;4935243;29;20110;-90
2023/04/04 00:34:37;;;;;;;21.13;11.75;;;4.90;99.90;;;;;;4934717;29;20127;-90
2023/04/04 00:37:02;;;;;;;15.35;10.18;;;4.70;99.90;;;;;;4935135;29;20035;-90
2023/04/04 00:39:28;;;;;;;15.90;9.23;;;4.90;99.90;;;;;;4935664;29;20111;-90
2023/04/04 00:41:53;;;;;;;32.60;16.92;;;5.20;99.90;;;;;;4935056;29;20127;-90
2023/04/04 00:44:19;;;;;;;13.70;9.57;;;4.80;99.90;;;;;;4934980;29;20031;-90
2023/04/04 00:46:45;;;;;;;20.13;11.70;;;4.80;99.90;;;;;;4951756;29;20056;-90
2023/04/04 00:49:11;;;;;;;27.58;14.25;;;4.80;99.90;;;;;;4954596;28;20448;-89
2023/04/04 00:51:36;;;;;;;12.10;7.78;;;4.80;99.90;;;;;;4954649;28;20047;-89
2023/04/04 00:54:02;;;;;;;17.20;10.00;;;4.60;99.90;;;;;;4954048;28;20027;-90
2023/04/04 00:56:30;;;;;;;18.95;10.38;;;4.70;99.90;;;;;;4953910;28;20027;-90
2023/04/04 00:58:56;;;;;;;11.50;7.55;;;4.60;99.90;;;;;;4953996;28;20106;-90
2023/04/04 01:01:24;;;;;;;12.38;7.10;;;4.40;99.90;;;;;;4953169;28;20042;-90
2023/04/04 01:03:50;;;;;;;18.33;10.27;;;4.40;99.90;;;;;;4953455;28;20053;-90
2023/04/04 01:06:16;;;;;;;13.65;8.63;;;4.40;99.90;;;;;;4953999;28;20531;-90
2023/04/04 01:08:43;;;;;;;13.65;8.70;;;4.40;99.90;;;;;;4952818;28;20119;-90
2023/04/04 01:11:09;;;;;;;17.10;10.82;;;4.30;99.90;;;;;;4953884;28;20448;-90
2023/04/04 01:13:35;;;;;;;6.97;5.90;;;4.20;99.90;;;;;;4953763;28;20429;-89
2023/04/04 01:16:01;;;;;;;8.95;6.55;;;4.20;99.90;;;;;;4953980;28;20138;-90
2023/04/04 01:18:28;;;;;;;10.30;7.28;;;4.10;99.90;;;;;;4953402;28;20157;-90
2023/04/04 01:20:59;;;;;;;11.30;7.97;;;4.50;99.90;;;;;;4953356;28;20502;-90
2023/04/04 01:23:35;;;;;;;12.68;9.38;;;4.20;99.90;;;;;;4954144;28;20105;-90
2023/04/04 01:26:02;;;;;;;17.73;11.88;;;4.20;99.90;;;;;;4953594;28;20039;-90
2023/04/04 01:28:27;;;;;;;15.32;9.82;;;4.10;99.90;;;;;;4953582;28;20058;-90
2023/04/04 01:30:54;;;;;;;24.90;16.50;;;4.50;99.90;;;;;;4953583;28;20088;-90
2023/04/04 01:33:35;;;;;;;21.10;14.35;;;4.10;99.90;;;;;;4953086;28;20023;-90
2023/04/04 01:36:04;;;;;;;16.80;12.02;;;4.60;99.90;;;;;;4953496;28;20035;-90
2023/04/04 01:38:44;;;;;;;15.38;10.77;;;4.30;99.90;;;;;;4953381;28;20027;-90
2023/04/04 01:41:11;;;;;;;8.25;6.82;;;4.10;99.90;;;;;;4953795;28;20381;-90
2023/04/04 01:43:37;;;;;;;11.02;6.85;;;4.10;99.90;;;;;;4953362;28;20031;-90
2023/04/04 01:46:03;;;;;;;9.05;6.15;;;4.10;99.90;;;;;;4954260;28;20038;-90
2023/04/04 01:48:29;;;;;;;9.68;7.68;;;4.00;99.90;;;;;;4953325;28;20034;-90
2023/04/04 01:50:55;;;;;;;7.70;6.13;;;3.90;99.90;;;;;;4953768;28;20114;-89
2023/04/04 01:53:21;;;;;;;13.13;7.60;;;3.90;99.90;;;;;;4953232;28;20020;-89
2023/04/04 01:55:47;;;;;;;10.20;7.97;;;3.90;99.90;;;;;;4953097;28;20435;-90
2023/04/04 01:58:12;;;;;;;8.20;7.25;;;3.80;99.90;;;;;;4953231;28;20050;-89
2023/04/04 02:00:38;;;;;;;9.35;7.28;;;4.00;99.90;;;;;;4952993;28;20089;-89
2023/04/04 02:03:04;;;;;;;8.82;6.93;;;3.90;99.90;;;;;;4953002;28;20066;-89
2023/04/04 02:05:29;;;;;;;6.70;5.63;;;4.10;99.90;;;;;;4952986;28;20031;-90
2023/04/04 02:07:55;;;;;;;7.55;6.70;;;4.00;99.90;;;;;;4953827;28;20035;-90
2023/04/04 02:10:21;;;;;;;8.60;6.35;;;3.80;99.90;;;;;;4952836;28;20068;-86
2023/04/04 02:12:46;;;;;;;9.23;7.07;;;3.80;99.90;;;;;;4952772;28;20089;-86
2023/04/04 02:15:12;;;;;;;9.02;7.25;;;3.90;99.90;;;;;;4942737;29;20098;-86
2023/04/04 02:17:38;;;;;;;10.32;7.15;;;4.00;99.90;;;;;;4932952;29;20082;-86
2023/04/04 02:20:05;;;;;;;8.50;6.70;;;3.90;99.90;;;;;;4933641;29;20477;-86
2023/04/04 02:22:31;;;;;;;8.15;6.32;;;3.80;99.90;;;;;;4933950;29;20063;-86
2023/04/04 02:24:56;;;;;;;7.47;6.20;;;3.70;99.90;;;;;;4932346;29;20501;-86
2023/04/04 02:27:23;;;;;;;9.30;6.70;;;3.60;99.90;;;;;;4933499;29;20150;-86
2023/04/04 02:29:48;;;;;;;9.45;7.20;;;3.70;99.90;;;;;;4932253;29;20023;-86
2023/04/04 02:32:14;;;;;;;6.45;5.80;;;3.70;99.90;;;;;;4932259;29;20036;-86
2023/04/04 02:34:39;;;;;;;7.60;6.53;;;3.60;99.90;;;;;;4932132;29;20031;-86
2023/04/04 02:37:05;;;;;;;8.43;6.20;;;3.50;99.90;;;;;;4932295;29;20124;-86
2023/04/04 02:39:31;;;;;;;7.32;5.80;;;3.60;99.90;;;;;;4933305;29;20020;-86
2023/04/04 02:41:56;;;;;;;6.32;5.72;;;3.60;99.90;;;;;;4932036;29;20032;-86
2023/04/04 02:44:22;;;;;;;7.10;5.60;;;3.70;99.90;;;;;;4931448;29;20110;-86
2023/04/04 02:46:48;;;;;;;7.60;5.47;;;3.60;99.90;;;;;;4950270;29;20031;-87
2023/04/04 02:49:14;;;;;;;6.60;5.80;;;3.60;99.90;;;;;;4952476;28;20134;-86
2023/04/04 02:51:39;;;;;;;6.68;5.50;;;3.70;99.90;;;;;;4952265;28;20107;-87
2023/04/04 02:54:05;;;;;;;7.68;5.43;;;3.50;99.90;;;;;;4952669;28;20133;-86
2023/04/04 02:56:31;;;;;;;6.75;5.70;;;3.70;99.90;;;;;;4952256;28;20032;-86
2023/04/04 02:58:58;;;;;;;7.32;5.35;;;3.70;99.90;;;;;;4951898;28;20027;-86
2023/04/04 03:01:23;;;;;;;6.32;5.18;;;3.60;99.90;;;;;;4952142;28;20059;-86
2023/04/04 03:03:49;;;;;;;6.35;5.53;;;3.70;99.90;;;;;;4951086;29;20110;-86
2023/04/04 03:06:15;;;;;;;6.07;5.43;;;3.50;99.90;;;;;;4967250;28;20141;-86
2023/04/04 03:08:41;;;;;;;6.32;5.35;;;3.50;99.90;;;;;;4950809;28;20469;-87
2023/04/04 03:11:06;;;;;;;6.25;4.95;;;3.70;99.90;;;;;;4952011;28;20432;-86
2023/04/04 03:13:32;;;;;;;5.82;5.32;;;3.60;99.90;;;;;;4952032;28;20027;-86
2023/04/04 03:16:03;;;;;;;7.68;5.47;;;3.50;99.90;;;;;;4937384;28;20074;-86
2023/04/04 03:18:29;;;;;;;7.38;5.50;;;3.50;99.90;;;;;;4932832;29;20035;-86
2023/04/04 03:20:54;;;;;;;6.63;5.45;;;3.50;99.90;;;;;;4932666;29;20070;-86
2023/04/04 03:23:20;;;;;;;7.78;5.50;;;3.50;99.90;;;;;;4932884;29;20039;-87
2023/04/04 03:25:45;;;;;;;6.50;5.50;;;3.30;99.90;;;;;;4932710;29;20393;-86
2023/04/04 03:28:12;;;;;;;7.38;5.63;;;3.20;99.90;;;;;;4932764;29;20049;-86
2023/04/04 03:30:38;;;;;;;8.73;6.03;;;3.30;99.90;;;;;;4930266;29;20118;-87
2023/04/04 03:33:08;;;;;;;9.40;5.93;;;3.20;99.90;;;;;;4931599;29;20127;-86
2023/04/04 03:35:40;;;;;;;7.40;5.80;;;3.20;99.90;;;;;;4931317;29;20440;-86
2023/04/04 03:38:07;;;;;;;6.82;5.57;;;3.20;99.90;;;;;;4932554;29;20089;-86
2023/04/04 03:40:33;;;;;;;8.18;5.72;;;3.20;99.90;;;;;;4931173;29;20032;-86
2023/04/04 03:42:59;;;;;;;7.03;5.82;;;3.20;99.90;;;;;;4932893;29;20030;-87
2023/04/04 03:45:24;;;;;;;6.28;5.68;;;3.20;99.90;;;;;;4938761;29;20039;-86
2023/04/04 03:47:50;;;;;;;7.10;5.55;;;3.20;99.90;;;;;;4966366;28;20031;-86
2023/04/04 03:50:16;;;;;;;7.78;6.13;;;3.20;99.90;;;;;;4951569;28;20027;-86
2023/04/04 03:52:42;;;;;;;7.03;5.50;;;3.10;99.90;;;;;;4966370;28;20038;-86
2023/04/04 03:55:08;;;;;;;5.88;5.28;;;3.00;99.90;;;;;;4951416;28;20023;-87
2023/04/04 03:57:35;;;;;;;12.25;5.60;;;3.10;99.90;;;;;;4965917;28;20031;-87
2023/04/04 04:00:01;;;;;;;6.00;5.40;;;3.00;99.90;;;;;;4951447;28;20031;-86
2023/04/04 04:02:26;;;;;;;9.00;5.88;;;3.30;99.90;;;;;;4966183;28;20114;-87
2023/04/04 04:04:52;;;;;;;6.20;5.60;;;2.90;99.90;;;;;;4951740;28;20106;-87
2023/04/04 04:07:18;;;;;;;6.15;5.55;;;3.00;99.90;;;;;;4951114;28;20039;-86
2023/04/04 04:09:43;;;;;;;6.97;5.82;;;3.00;99.90;;;;;;4951388;28;20023;-86
2023/04/04 04:12:09;;;;;;;5.97;5.30;;;3.00;99.90;;;;;;4950934;28;20063;-86
2023/04/04 04:14:34;;;;;;;7.78;5.78;;;3.10;99.90;;;;;;4946646;29;20052;-86
2023/04/04 04:17:00;;;;;;;7.03;6.25;;;3.10;99.90;;;;;;4930961;29;20482;-86
2023/04/04 04:19:26;;;;;;;7.60;6.53;;;3.40;99.90;;;;;;4932166;29;20031;-86
2023/04/04 04:21:51;;;;;;;8.00;6.68;;;2.90;99.90;;;;;;4931847;29;20039;-87
2023/04/04 04:24:17;;;;;;;7.15;6.28;;;3.30;99.90;;;;;;4931957;29;20118;-86
2023/04/04 04:26:43;;;;;;;7.32;6.30;;;2.90;99.90;;;;;;4932483;29;20074;-86
2023/04/04 04:29:08;;;;;;;7.25;6.05;;;2.90;99.90;;;;;;4931132;28;20028;-86
2023/04/04 04:31:34;;;;;;;9.85;6.80;;;2.80;99.90;;;;;;4932429;29;20034;-86
2023/04/04 04:33:59;;;;;;;6.55;5.65;;;2.70;99.90;;;;;;4931195;28;20123;-87
2023/04/04 04:36:26;;;;;;;6.88;6.18;;;2.60;99.90;;;;;;4932136;29;20077;-86
2023/04/04 04:38:51;;;;;;;10.23;7.63;;;2.60;99.90;;;;;;4931298;29;20497;-86
2023/04/04 04:41:17;;;;;;;11.38;7.95;;;2.60;99.90;;;;;;4932021;29;20044;-87
2023/04/04 04:43:42;;;;;;;9.93;7.07;;;2.70;99.90;;;;;;4934292;29;20020;-85
2023/04/04 04:46:08;;;;;;;9.65;7.18;;;2.80;99.90;;;;;;4946993;29;20140;-86
2023/04/04 04:48:34;;;;;;;9.88;7.32;;;2.70;99.90;;;;;;4954200;28;20030;-87
2023/04/04 04:50:59;;;;;;;10.07;6.90;;;2.60;99.90;;;;;;4953129;29;20038;-87
2023/04/04 04:53:25;;;;;;;9.35;7.50;;;2.90;99.90;;;;;;4954487;28;20050;-86
2023/04/04 04:55:53;;;;;;;9.75;7.75;;;2.70;99.90;;;;;;4952562;29;20035;-86
2023/04/04 04:58:22;;;;;;;9.85;7.20;;;2.70;99.90;;;;;;4953872;28;20046;-87
2023/04/04 05:00:48;;;;;;;9.48;7.55;;;2.70;99.90;;;;;;4954033;28;20093;-86
2023/04/04 05:03:14;;;;;;;9.18;7.13;;;2.70;99.90;;;;;;4954053;28;20031;-86
2023/04/04 05:05:42;;;;;;;7.35;6.20;;;2.80;99.90;;;;;;4952824;29;20516;-86
2023/04/04 05:08:08;;;;;;;8.85;6.80;;;2.80;99.90;;;;;;4954354;28;20049;-86
2023/04/04 05:13:56;;;;;;;9.30;6.75;;;2.70;99.90;;;;;;4953866;29;20042;-86
2023/04/04 05:16:21;;;;;;;11.43;6.57;;;2.60;99.90;;;;;;4951985;28;20043;-86
2023/04/04 05:18:48;;;;;;;8.43;5.97;;;2.70;99.90;;;;;;4953781;28;20393;-86
2023/04/04 05:21:13;;;;;;;11.80;6.90;;;2.70;99.90;;;;;;4954103;28;20043;-86
2023/04/04 05:23:39;;;;;;;9.68;6.80;;;2.80;99.90;;;;;;4951821;28;20034;-87
2023/04/04 05:26:05;;;;;;;7.93;7.13;;;2.70;99.90;;;;;;4953531;28;20767;-86
2023/04/04 05:28:31;;;;;;;9.95;7.03;;;3.00;99.90;;;;;;4954075;28;20473;-86
2023/04/04 05:30:56;;;;;;;14.13;9.13;;;2.90;99.90;;;;;;4952189;29;20027;-87
2023/04/04 05:33:22;;;;;;;16.27;10.52;;;2.80;99.90;;;;;;4953482;28;20568;-86
2023/04/04 05:35:48;;;;;;;15.73;11.07;;;3.00;99.90;;;;;;4953668;28;20019;-86
2023/04/04 05:38:14;;;;;;;17.52;10.27;;;2.60;99.90;;;;;;4952377;29;20448;-87
2023/04/04 05:40:39;;;;;;;11.25;8.70;;;3.20;99.90;;;;;;4953456;28;20036;-86
2023/04/04 05:43:05;;;;;;;16.85;11.52;;;2.70;99.90;;;;;;4953340;28;20027;-87
2023/04/04 05:45:31;;;;;;;23.45;15.80;;;2.70;99.90;;;;;;4945656;29;20024;-87
2023/04/04 05:47:57;;;;;;;16.25;10.30;;;3.10;99.90;;;;;;4934233;29;20103;-87
2023/04/04 05:50:22;;;;;;;36.08;15.38;;;3.20;99.90;;;;;;4934116;28;20066;-87
2023/04/04 05:52:48;;;;;;;37.20;16.63;;;2.90;99.90;;;;;;4932865;29;20032;-86
2023/04/04 05:55:14;;;;;;;89.05;33.58;;;3.00;99.90;;;;;;4933372;29;20473;-87
2023/04/04 05:57:50;;;;;;;28.95;13.38;;;3.10;99.90;;;;;;4933816;29;20032;-87
2023/04/04 06:00:17;;;;;;;24.88;13.32;;;2.80;99.90;;;;;;4934089;29;20031;-87
2023/04/04 06:02:43;;;;;;;12.65;8.25;;;2.80;99.90;;;;;;4932624;29;20039;-87
2023/04/04 06:05:09;;;;;;;16.55;11.40;;;3.00;99.90;;;;;;4934017;29;20023;-87
2023/04/04 06:07:35;;;;;;;8.80;6.47;;;2.90;99.90;;;;;;4932660;29;20043;-87
2023/04/04 06:10:01;;;;;;;11.00;6.63;;;3.10;99.90;;;;;;4934588;29;20054;-86
2023/04/04 06:12:27;;;;;;;7.68;6.15;;;3.00;99.90;;;;;;4933806;29;20027;-86
2023/04/04 06:14:52;;;;;;;8.25;6.10;;;3.00;99.90;;;;;;4933471;28;20042;-86
2023/04/04 06:17:18;;;;;;;9.63;6.82;;;3.00;99.90;;;;;;4932921;29;20035;-86
2023/04/04 06:19:44;;;;;;;11.15;5.85;;;3.20;99.90;;;;;;4933397;29;20027;-87
2023/04/04 06:22:10;;;;;;;6.20;5.50;;;3.30;99.90;;;;;;4933764;29;20038;-86
2023/04/04 06:24:35;;;;;;;7.28;5.55;;;3.30;99.90;;;;;;4932702;29;20028;-86
2023/04/04 06:27:01;;;;;;;7.97;5.65;;;3.30;99.90;;;;;;4933552;29;20035;-82
2023/04/04 06:29:27;;;;;;;7.72;5.32;;;3.20;99.90;;;;;;4933132;29;20512;-81
2023/04/04 06:31:54;;;;;;;7.38;4.80;;;3.60;99.90;;;;;;4933165;29;20059;-82
2023/04/04 06:34:22;;;;;;;7.82;5.28;;;3.70;99.90;;;;;;4932924;29;20452;-81
2023/04/04 06:36:48;;;;;;;6.57;5.13;;;3.60;99.90;;;;;;4932784;29;20035;-80
2023/04/04 06:39:14;;;;;;;9.90;5.68;;;4.00;99.90;;;;;;4932906;29;20036;-81
2023/04/04 06:41:40;;;;;;;8.13;5.90;;;3.70;99.90;;;;;;4933130;29;20050;-81
2023/04/04 06:44:06;;;;;;;23.00;11.07;;;3.70;99.90;;;;;;4936088;29;20024;-81
2023/04/04 06:46:32;;;;;;;14.90;6.43;;;3.80;99.90;;;;;;4947742;29;20031;-81
2023/04/04 06:48:58;;;;;;;8.55;5.65;;;4.00;99.90;;;;;;4952369;28;20034;-80
2023/04/04 06:51:24;;;;;;;9.15;5.05;;;4.30;99.90;;;;;;4951641;28;20032;-81
2023/04/04 06:53:50;;;;;;;33.72;7.03;;;3.90;99.90;;;;;;4951843;28;20034;-81
2023/04/04 06:56:16;;;;;;;32.40;7.13;;;3.90;99.90;;;;;;4951861;28;20034;-82
2023/04/04 06:58:42;;;;;;;11.85;5.03;;;3.90;99.90;;;;;;4951858;28;20020;-81
2023/04/04 07:01:07;;;;;;;8.75;5.20;;;3.80;99.90;;;;;;4952145;28;20039;-80
2023/04/04 07:03:33;;;;;;;15.45;5.22;;;3.70;99.90;;;;;;4951691;28;20027;-81
2023/04/04 07:06:03;;;;;;;26.27;6.10;;;3.80;99.90;;;;;;4951320;28;20035;-81
2023/04/04 07:08:29;;;;;;;42.97;7.60;;;4.00;99.90;;;;;;4951689;28;20027;-80
2023/04/04 07:10:55;;;;;;;14.40;5.28;;;3.90;99.90;;;;;;4951697;28;20031;-80
2023/04/04 07:13:21;;;;;;;20.92;6.55;;;3.90;99.90;;;;;;4952007;28;20440;-81
2023/04/04 07:15:48;;;;;;;10.65;5.38;;;3.80;99.90;;;;;;4938745;28;20052;-81
2023/04/04 07:18:14;;;;;;;6.70;5.03;;;3.80;99.90;;;;;;4932495;29;20502;-81
2023/04/04 07:20:40;;;;;;;7.07;4.65;;;3.80;99.90;;;;;;4932094;29;20044;-80
2023/04/04 07:23:06;;;;;;;6.72;4.85;;;3.80;99.90;;;;;;4932763;29;20027;-81
2023/04/04 07:25:32;;;;;;;8.52;5.03;;;4.10;99.90;;;;;;4932367;29;20430;-81
2023/04/04 07:27:57;;;;;;;16.90;5.57;;;4.40;99.90;;;;;;4932589;29;20507;-81
2023/04/04 07:30:26;;;;;;;9.25;5.00;;;4.00;99.90;;;;;;4932008;29;20056;-81
2023/04/04 07:32:59;;;;;;;7.53;5.07;;;4.00;99.90;;;;;;4932210;29;20036;-81
2023/04/04 07:35:24;;;;;;;6.68;4.90;;;4.10;99.90;;;;;;4932111;29;20081;-81
2023/04/04 07:37:51;;;;;;;23.35;6.75;;;4.20;99.90;;;;;;4932153;29;20031;-81
2023/04/04 07:40:17;;;;;;;22.05;7.68;;;4.30;99.90;;;;;;4932217;29;20105;-81
2023/04/04 07:42:45;;;;;;;38.58;8.52;;;4.40;99.90;;;;;;4932142;29;20058;-81
2023/04/04 07:45:12;;;;;;;19.63;7.72;;;4.40;99.90;;;;;;4936217;29;20110;-81
2023/04/04 07:47:45;;;;;;;18.13;6.88;;;4.40;99.90;;;;;;4950969;28;20821;-81
2023/04/04 07:50:14;;;;;;;18.15;5.43;;;4.50;99.90;;;;;;4950789;28;20027;-81
2023/04/04 07:52:40;;;;;;;44.33;8.25;;;4.50;99.90;;;;;;4951482;28;20035;-81
2023/04/04 07:55:07;;;;;;;26.90;7.43;;;4.80;99.90;;;;;;4950966;28;20042;-81
2023/04/04 07:57:36;;;;;;;23.48;8.05;;;4.70;99.90;;;;;;4951170;29;20073;-81
2023/04/04 08:00:04;;;;;;;8.50;4.72;;;4.80;99.90;;;;;;4950916;28;20031;-81
2023/04/04 08:02:30;;;;;;;12.65;5.57;;;4.80;99.90;;;;;;4951401;28;20153;-81
2023/04/04 08:04:55;;;;;;;22.27;6.25;;;4.80;99.90;;;;;;4950705;28;20024;-81
2023/04/04 08:07:21;;;;;;;32.70;7.63;;;5.10;99.90;;;;;;4951101;28;20035;-81
2023/04/04 08:09:47;;;;;;;10.88;5.03;;;4.80;99.90;;;;;;4951032;28;20094;-81
2023/04/04 08:12:13;;;;;;;11.38;5.63;;;5.00;99.90;;;;;;4951107;28;20538;-81
2023/04/04 08:14:38;;;;;;;8.65;5.13;;;5.10;99.90;;;;;;4946977;28;20070;-81
2023/04/04 08:17:04;;;;;;;15.18;5.05;;;5.10;99.90;;;;;;4934108;29;20131;-81
2023/04/04 08:19:30;;;;;;;13.77;4.80;;;5.20;99.90;;;;;;4934974;29;20020;-81
2023/04/04 08:21:55;;;;;;;30.35;6.30;;;5.20;99.90;;;;;;4934839;29;20054;-81
2023/04/04 08:24:21;;;;;;;27.33;6.40;;;5.10;99.90;;;;;;4935042;29;20023;-81
2023/04/04 08:26:47;;;;;;;26.48;6.00;;;5.20;99.90;;;;;;4935053;29;20058;-81
2023/04/04 08:29:12;;;;;;;9.77;4.60;;;5.10;99.90;;;;;;4935005;29;20074;-81
2023/04/04 08:31:39;;;;;;;28.52;6.38;;;5.10;99.90;;;;;;4934759;29;20514;-81
2023/04/04 08:34:07;;;;;;;38.17;7.68;;;5.10;99.90;;;;;;4934517;29;20027;-81
2023/04/04 08:36:33;;;;;;;41.20;7.72;;;5.30;99.90;;;;;;4934802;29;20035;-80
2023/04/04 08:38:59;;;;;;;41.47;7.03;;;5.30;99.90;;;;;;4935066;29;20023;-81
2023/04/04 08:41:25;;;;;;;23.25;6.40;;;5.40;99.90;;;;;;4935517;29;20444;-80
2023/04/04 08:43:53;;;;;;;8.68;4.82;;;5.50;99.90;;;;;;4934655;29;20482;-80
2023/04/04 08:46:22;;;;;;;17.05;5.10;;;5.70;99.90;;;;;;4947845;29;20489;-80
2023/04/04 08:48:51;;;;;;;11.65;4.47;;;5.70;99.90;;;;;;4954181;28;20500;-80
2023/04/04 08:51:19;;;;;;;19.33;5.88;;;5.70;99.90;;;;;;4953843;28;20046;-80
2023/04/04 08:53:44;;;;;;;10.55;5.47;;;5.90;99.90;;;;;;4953715;28;20396;-81
2023/04/04 08:56:10;;;;;;;6.75;4.20;;;5.60;99.90;;;;;;4954076;28;20028;-80
2023/04/04 08:58:39;;;;;;;13.00;4.90;;;5.90;99.90;;;;;;4953453;28;20496;-80
2023/04/04 09:01:06;;;;;;;6.90;4.70;;;6.00;99.90;;;;;;4953107;28;20505;-80
2023/04/04 09:03:33;;;;;;;13.45;4.53;;;6.10;99.90;;;;;;4954043;28;20055;-80
2023/04/04 09:06:01;;;;;;;14.70;4.85;;;5.90;99.90;;;;;;4953838;28;20042;-80
2023/04/04 09:08:27;;;;;;;8.20;4.07;;;6.10;99.90;;;;;;4953530;28;20378;-80
2023/04/04 09:10:54;;;;;;;5.32;4.00;;;6.10;99.90;;;;;;4953492;28;20455;-80
2023/04/04 09:13:20;;;;;;;11.10;4.72;;;6.50;99.90;;;;;;4953445;28;20023;-80
2023/04/04 09:15:48;;;;;;;10.25;4.80;;;6.50;99.90;;;;;;4940190;28;20418;-80
2023/04/04 09:18:13;;;;;;;9.40;4.28;;;6.80;99.90;;;;;;4934342;29;20086;-80
2023/04/04 09:20:41;;;;;;;4.57;4.00;;;6.60;99.90;;;;;;4934540;29;20032;-81
2023/04/04 09:23:18;;;;;;;12.30;5.32;;;6.80;99.90;;;;;;4934158;29;20062;-80
2023/04/04 09:25:49;;;;;;;16.23;4.85;;;7.00;99.90;;;;;;4934095;29;20107;-80
2023/04/04 09:28:16;;;;;;;11.02;4.47;;;7.10;99.90;;;;;;4934453;29;20032;-81
2023/04/04 09:30:43;;;;;;;13.55;4.60;;;7.30;99.90;;;;;;4933767;29;20031;-80
2023/04/04 09:33:11;;;;;;;6.05;4.35;;;7.20;99.90;;;;;;4933950;29;20028;-80
2023/04/04 09:35:40;;;;;;;5.10;4.30;;;7.60;99.90;;;;;;4934111;29;20422;-80
2023/04/04 09:38:06;;;;;;;7.03;4.20;;;7.90;99.90;;;;;;4933955;29;20024;-81
2023/04/04 09:40:36;;;;;;;4.35;3.95;;;8.30;99.90;;;;;;4933768;29;20437;-80
2023/04/04 09:43:05;;;;;;;5.78;4.13;;;8.40;99.90;;;;;;4934021;29;20027;-80
2023/04/04 09:45:34;;;;;;;7.13;3.80;;;8.70;99.90;;;;;;4940159;29;20107;-81
2023/04/04 09:48:01;;;;;;;14.93;4.43;;;8.90;99.90;;;;;;4952854;28;20028;-80
2023/04/04 09:50:32;;;;;;;7.03;4.10;;;8.90;99.90;;;;;;4953372;28;20028;-80
2023/04/04 09:52:59;;;;;;;11.45;4.47;;;9.00;99.90;;;;;;4952966;28;20554;-81
2023/04/04 09:55:36;;;;;;;15.95;4.65;;;9.40;99.90;;;;;;4952953;28;20045;-81
2023/04/04 09:58:13;;;;;;;6.57;3.95;;;9.50;99.90;;;;;;4952779;28;20027;-81
2023/04/04 10:00:47;;;;;;;16.88;5.97;;;9.10;99.90;;;;;;4952573;28;20114;-81
2023/04/04 10:03:16;;;;;;;7.15;3.90;;;9.00;99.90;;;;;;4952720;28;20028;-80
2023/04/04 10:05:44;;;;;;;5.30;3.95;;;11.40;99.90;;;;;;4952478;28;20040;-80
2023/04/04 10:08:20;;;;;;;5.40;4.43;;;13.00;99.90;;;;;;4952588;28;20027;-80
2023/04/04 10:10:56;;;;;;;4.65;4.20;;;13.20;99.90;;;;;;4952921;28;20031;-80
2023/04/04 10:13:27;;;;;;;8.45;4.63;;;12.80;99.90;;;;;;4952205;28;20031;-81
2023/04/04 10:15:57;;;;;;;5.38;4.93;;;14.30;99.90;;;;;;4938677;28;20048;-81
2023/04/04 10:18:30;;;;;;;14.25;4.97;;;12.10;99.90;;;;;;4933599;29;20031;-80
2023/04/04 10:20:59;;;;;;;5.75;4.30;;;11.20;99.90;;;;;;4933241;29;20035;-81
2023/04/04 10:23:26;;;;;;;7.88;4.88;;;11.10;99.90;;;;;;4933262;29;20028;-81
2023/04/04 10:25:53;;;;;;;4.88;4.40;;;10.80;99.90;;;;;;4933484;29;20027;-81
2023/04/04 10:28:20;;;;;;;4.43;4.03;;;10.20;99.90;;;;;;4932826;29;20023;-80
2023/04/04 10:30:57;;;;;;;4.47;4.07;;;10.20;99.90;;;;;;4933756;29;20524;-80
2023/04/04 10:33:49;;;;;;;12.73;4.68;;;13.30;99.90;;;;;;4933276;29;20036;-81
2023/04/04 10:36:21;;;;;;;16.17;4.78;;;14.10;99.90;;;;;;4933511;29;20027;-81
2023/04/04 10:38:57;;;;;;;13.13;4.78;;;13.40;99.90;;;;;;4932676;29;20032;-80
2023/04/04 10:41:26;;;;;;;7.72;4.78;;;11.80;99.90;;;;;;4932858;29;20046;-80
2023/04/04 10:43:55;;;;;;;8.00;4.47;;;10.90;99.90;;;;;;4932978;29;20429;-81
2023/04/04 10:46:29;;;;;;;5.60;4.00;;;11.00;99.90;;;;;;4946333;29;20045;-80
2023/04/04 10:48:59;;;;;;;6.10;4.60;;;10.80;99.90;;;;;;4952202;28;20027;-80
2023/04/04 10:51:25;;;;;;;7.32;4.13;;;11.50;99.90;;;;;;4951907;28;20102;-81
2023/04/04 10:53:52;;;;;;;5.68;4.18;;;13.00;99.90;;;;;;4952331;28;20023;-81
2023/04/04 10:56:18;;;;;;;5.53;4.10;;;13.20;99.90;;;;;;4951852;28;20435;-81
2023/04/04 10:58:44;;;;;;;4.78;4.18;;;14.00;99.90;;;;;;4951999;28;20080;-80
2023/04/04 11:01:15;;;;;;;5.45;3.95;;;13.20;99.90;;;;;;4951694;28;20043;-81
2023/04/04 11:04:15;;;;;;;4.38;3.97;;;12.80;99.90;;;;;;4951667;28;20028;-81
2023/04/04 11:07:09;;;;;;;6.15;3.80;;;12.40;99.90;;;;;;4951714;28;20054;-80
2023/04/04 11:09:55;;;;;;;6.93;3.65;;;13.50;99.90;;;;;;4951800;28;20027;-80
2023/04/04 11:12:33;;;;;;;4.47;3.83;;;15.20;99.90;;;;;;4951141;28;20400;-81
2023/04/04 11:15:02;;;;;;;6.65;3.95;;;14.20;99.90;;;;;;4945219;28;20046;-81
2023/04/04 11:17:49;;;;;;;5.30;4.10;;;14.80;99.90;;;;;;4932450;29;20035;-81
2023/04/04 11:20:20;;;;;;;5.40;3.92;;;13.60;99.90;;;;;;4932651;29;20124;-81
2023/04/04 11:22:48;;;;;;;6.28;3.90;;;12.70;99.90;;;;;;4932442;29;20417;-81
2023/04/04 11:25:35;;;;;;;5.78;4.07;;;12.00;99.90;;;;;;4932349;29;20035;-80
2023/04/04 11:28:34;;;;;;;13.75;4.90;;;16.30;99.90;;;;;;4931969;29;20038;-80
2023/04/04 11:31:18;;;;;;;5.53;3.63;;;19.10;99.90;;;;;;4932357;29;20572;-81
2023/04/04 11:33:58;;;;;;;5.50;3.92;;;19.90;99.90;;;;;;4932269;29;20024;-81
2023/04/04 11:36:40;;;;;;;3.92;3.63;;;18.50;99.90;;;;;;4932589;29;20457;-81
2023/04/04 11:39:26;;;;;;;17.67;4.50;;;19.90;99.90;;;;;;4932136;29;20489;-81
2023/04/04 11:42:06;;;;;;;5.75;3.78;;;20.70;99.90;;;;;;4931737;29;20374;-81
2023/04/04 11:44:39;;;;;;;3.50;3.20;;;16.70;99.90;;;;;;4930875;29;20024;-81
2023/04/04 11:47:04;;;;;;;9.38;4.13;;;14.70;99.90;;;;;;4932210;29;20036;-81
2023/04/04 11:49:34;;;;;;;13.18;4.53;;;13.80;99.90;;;;;;4931927;28;20031;-81
2023/04/04 11:52:04;;;;;;;5.45;3.55;;;13.40;99.90;;;;;;4931923;28;20034;-81
2023/04/04 11:54:31;;;;;;;9.52;4.28;;;14.20;99.90;;;;;;4932067;29;20482;-80
2023/04/04 11:56:57;;;;;;;4.65;3.83;;;17.00;99.90;;;;;;4931610;29;20467;-81
2023/04/04 11:59:23;;;;;;;6.95;3.70;;;16.00;99.90;;;;;;4932053;29;20119;-81
2023/04/04 12:01:49;;;;;;;4.25;3.67;;;15.70;99.90;;;;;;4932108;29;20046;-80
2023/04/04 12:04:21;;;;;;;4.18;3.80;;;15.20;99.90;;;;;;4932055;29;20106;-81
2023/04/04 12:06:52;;;;;;;5.13;4.18;;;15.30;99.90;;;;;;4931977;28;20036;-81
2023/04/04 12:09:19;;;;;;;4.13;3.72;;;16.20;99.90;;;;;;4931580;29;20038;-80
2023/04/04 12:11:46;;;;;;;5.30;3.88;;;15.00;99.90;;;;;;4931753;29;20032;-81
2023/04/04 12:14:19;;;;;;;4.13;3.72;;;15.70;99.90;;;;;;4931595;28;20035;-81
2023/04/04 12:16:47;;;;;;;5.65;3.80;;;16.60;99.90;;;;;;4932214;29;20024;-81
2023/04/04 12:19:12;;;;;;;8.23;4.03;;;14.90;99.90;;;;;;4931837;29;20028;-80
2023/04/04 12:21:39;;;;;;;4.22;3.83;;;14.30;99.90;;;;;;4931715;29;20178;-81
2023/04/04 12:24:07;;;;;;;3.92;3.60;;;14.10;99.90;;;;;;4931252;29;20035;-81
2023/04/04 12:26:34;;;;;;;7.82;3.55;;;13.70;99.90;;;;;;4931590;29;20078;-81
2023/04/04 12:29:00;;;;;;;4.15;3.30;;;13.80;99.90;;;;;;4932047;29;20026;-81
2023/04/04 12:31:27;;;;;;;4.20;3.80;;;13.90;99.90;;;;;;4931748;29;20118;-81
2023/04/04 12:33:53;;;;;;;4.25;3.50;;;13.60;99.90;;;;;;4931590;29;20032;-81
2023/04/04 12:36:19;;;;;;;6.47;3.80;;;14.00;99.90;;;;;;4931347;29;20158;-81
2023/04/04 12:39:04;;;;;;;4.38;3.67;;;13.80;99.90;;;;;;4931574;29;20086;-81
2023/04/04 12:41:32;;;;;;;5.57;3.60;;;13.50;99.90;;;;;;4931846;29;20071;-81
2023/04/04 12:44:06;;;;;;;4.32;3.83;;;14.30;99.90;;;;;;4931382;29;20028;-81
2023/04/04 12:46:39;;;;;;;7.45;3.72;;;14.60;99.90;;;;;;4946527;29;20074;-81
2023/04/04 12:49:12;;;;;;;3.92;3.40;;;15.50;99.90;;;;;;4950506;28;20114;-80
2023/04/04 12:51:38;;;;;;;5.72;3.60;;;15.10;99.90;;;;;;4950917;28;20038;-81
2023/04/04 12:54:06;;;;;;;6.10;3.75;;;14.50;99.90;;;;;;4950116;28;20031;-80
2023/04/04 12:56:33;;;;;;;5.40;3.30;;;14.00;99.90;;;;;;4950348;28;20051;-81